Sidney Richland Municipal Airport
KSDY : rendu visible

Aérodrome :











RETROUVEZ-NOUS SUR...

 
LOGIN :

S'inscrire | Disclaimer

   EN    FR    IT 

 









Légende :    VFR   VFR Marginal   IFR   IFR Intensif   IFR Très Intensif
Visi : 
Plafond : 
>= 8 km
>= 3000ft
5 à 8 km
1000 à 3000 ft
1500m à 5 km
500 à 1000 ft
800 à 1500m
200 à 500 ft
< 800m
< 200 ft
Symboles :   Orages  Brouillard  Fortes neiges  Fortes précipitations  Vent > 20 kt






- Altitude de l'aérodrome : 1985 ft


KSDY - Sidney Richland Municipal

DERNIER METAR :
  • 100756Z AUTO 30007KT 10SM CLR M24/M27 A3024 RMK AO2 SLP637 T12441272 FZRANO

METARs EXPIRÉS :
  • 100656Z AUTO 29009KT 10SM CLR M23/M26 A3024 RMK AO2 SLP634 T12331256 410671239 FZRANO
  • 100631Z AUTO 30006KT 10SM FEW020 M23/M26 A3024 RMK AO2 FZRANO
  • 100556Z AUTO 31005KT 10SM BKN022 M21/M23 A3023 RMK AO2 SLP632 60000 T12061228 11117 21206 51024 FZRANO

TAF KSDY
Valide du 10 à 06h jusqu'au 11 à 06h UTC


100528Z 1006/1106 VRB04KT P6SM FEW250



MET'MAP, la Météo Aéronautique d'un coup d'oeil ! - Copyright ORBIFLY Décembre 2007 - Disclaimer

ORBIFLY MET'MAP TEAM :

Programmation & Développement : Alexandra Zaïnal
Sur une idée originale de : Baudouin d'Aumeries
Assistance à la programmation : Marc-Olivier Méhu
Soutien technique & logistique : Manuel Goepfert

Contact : metmap@orbifly.com




SOURCES & CREDITS :

   NOAA       Earth
Advisory